createdAt,value
2022-11-08T00:03:08.680Z,13.14
2022-11-08T00:07:31.260Z,13.15
2022-11-08T00:11:52.361Z,13.01
2022-11-08T00:15:55.644Z,12.96
2022-11-08T00:19:59.438Z,12.79
2022-11-08T00:24:04.509Z,12.76
2022-11-08T00:28:07.815Z,12.71
2022-11-08T00:32:13.508Z,12.75
2022-11-08T00:36:17.011Z,12.71
2022-11-08T00:40:21.694Z,12.67
2022-11-08T00:44:25.017Z,12.58
2022-11-08T00:48:28.297Z,12.52
2022-11-08T00:52:31.647Z,12.33
2022-11-08T00:56:36.467Z,12.36
2022-11-08T01:00:39.784Z,12.28
2022-11-08T01:04:43.308Z,12.08
2022-11-08T01:08:46.696Z,12.13
2022-11-08T01:12:51.412Z,11.92
2022-11-08T01:16:54.732Z,12.00
2022-11-08T01:20:58.002Z,11.93
2022-11-08T01:25:01.387Z,11.74
2022-11-08T01:29:06.184Z,11.74
2022-11-08T01:33:09.845Z,11.55
2022-11-08T01:37:13.252Z,11.51
2022-11-08T01:41:18.248Z,11.54
2022-11-08T01:45:54.857Z,11.55
2022-11-08T01:50:02.885Z,11.54
2022-11-08T01:54:12.066Z,11.41
2022-11-08T01:58:18.562Z,11.49
2022-11-08T02:02:22.745Z,11.35
2022-11-08T02:06:27.857Z,11.34
2022-11-08T02:10:35.766Z,11.34
2022-11-08T02:14:39.463Z,11.41
2022-11-08T02:18:44.194Z,11.32
2022-11-08T02:22:55.639Z,11.34
2022-11-08T02:27:00.766Z,11.32
2022-11-08T02:31:04.147Z,11.30
2022-11-08T02:35:11.127Z,11.30
2022-11-08T02:39:14.432Z,11.25
2022-11-08T02:43:19.789Z,11.21
2022-11-08T02:47:24.229Z,11.31
2022-11-08T02:51:27.599Z,11.32
2022-11-08T02:55:31.489Z,11.31
2022-11-08T02:59:36.215Z,11.19
2022-11-08T03:03:39.508Z,11.12
2022-11-08T03:07:42.863Z,11.15
2022-11-08T03:11:46.178Z,11.23
2022-11-08T03:15:50.824Z,11.22
2022-11-08T03:19:54.549Z,11.32
2022-11-08T03:23:57.861Z,11.37
2022-11-08T03:28:04.325Z,11.27
2022-11-08T03:32:09.324Z,11.16
2022-11-08T03:36:12.615Z,11.04
2022-11-08T03:40:16.006Z,10.95
2022-11-08T03:44:19.291Z,10.88
2022-11-08T03:48:24.672Z,10.80
2022-11-08T03:52:27.977Z,10.70
2022-11-08T03:56:31.272Z,10.66
2022-11-08T04:00:34.641Z,10.57
2022-11-08T04:04:39.450Z,10.51
2022-11-08T04:08:42.766Z,10.37
2022-11-08T04:13:03.841Z,10.29
2022-11-08T04:17:07.141Z,10.39
2022-11-08T04:21:19.322Z,10.45
2022-11-08T04:25:22.744Z,10.40
2022-11-08T04:29:26.128Z,10.36
2022-11-08T04:33:30.077Z,10.42
2022-11-08T04:37:34.855Z,10.47
2022-11-08T04:41:38.245Z,10.52
2022-11-08T04:45:42.025Z,10.44
2022-11-08T04:49:45.636Z,10.51
2022-11-08T04:53:51.018Z,10.59
2022-11-08T04:57:58.774Z,10.61
2022-11-08T05:02:02.307Z,10.67
2022-11-08T05:06:08.153Z,10.67
2022-11-08T05:10:13.276Z,10.65
2022-11-08T05:14:16.793Z,10.68
2022-11-08T05:18:20.535Z,10.74
2022-11-08T05:22:42.060Z,10.79
2022-11-08T05:26:49.399Z,10.77
2022-11-08T05:30:56.580Z,10.75
2022-11-08T05:34:59.965Z,10.74
2022-11-08T05:39:03.715Z,10.75
2022-11-08T05:43:08.840Z,10.78
2022-11-08T05:47:12.309Z,10.80
2022-11-08T05:51:17.977Z,10.69
2022-11-08T05:55:21.414Z,10.70
2022-11-08T05:59:26.458Z,10.64
2022-11-08T06:03:30.601Z,10.68
2022-11-08T06:07:34.368Z,10.60
2022-11-08T06:11:38.380Z,10.63
2022-11-08T06:15:43.666Z,10.59
2022-11-08T06:19:47.222Z,10.48
2022-11-08T06:23:54.000Z,10.56
2022-11-08T06:27:57.407Z,10.45
2022-11-08T06:32:02.192Z,10.38
2022-11-08T06:36:05.980Z,10.39
2022-11-08T06:40:11.208Z,10.36
2022-11-08T06:44:14.630Z,10.32
2022-11-08T06:48:19.424Z,10.33
2022-11-08T06:52:22.711Z,10.34
2022-11-08T06:56:26.150Z,10.37
2022-11-08T07:00:30.168Z,10.39
2022-11-08T07:04:35.012Z,10.41
2022-11-08T07:08:38.357Z,10.51
2022-11-08T07:12:41.819Z,10.53
2022-11-08T07:16:45.156Z,10.58
2022-11-08T07:20:50.262Z,10.66
2022-11-08T07:24:53.679Z,10.80
2022-11-08T07:28:57.050Z,11.27
2022-11-08T07:33:00.436Z,11.50
2022-11-08T07:37:05.294Z,11.94
2022-11-08T07:41:10.587Z,12.02
2022-11-08T07:45:14.135Z,12.02
2022-11-08T07:49:17.532Z,12.00
2022-11-08T07:53:28.098Z,12.02
2022-11-08T07:58:02.383Z,12.33
2022-11-08T08:02:06.107Z,12.28
2022-11-08T08:06:24.392Z,12.20
2022-11-08T08:10:38.590Z,12.30
2022-11-08T08:14:46.177Z,12.33
2022-11-08T08:19:10.501Z,12.29
2022-11-08T08:23:21.212Z,12.30
2022-11-08T08:27:48.273Z,12.34
2022-11-08T08:31:52.700Z,12.41
2022-11-08T08:35:56.500Z,12.39
2022-11-08T08:40:01.575Z,12.33
2022-11-08T08:44:09.042Z,12.36
2022-11-08T08:48:18.883Z,12.35
2022-11-08T08:52:37.484Z,12.42
2022-11-08T08:56:40.832Z,12.44
2022-11-08T09:05:17.665Z,12.54
2022-11-08T09:09:52.881Z,12.58
2022-11-08T09:13:56.343Z,12.72
2022-11-08T09:18:01.609Z,12.97
2022-11-08T09:22:08.153Z,13.14
2022-11-08T09:26:12.501Z,13.31
2022-11-08T09:30:16.032Z,13.75
2022-11-08T09:34:21.849Z,13.47
2022-11-08T09:38:25.430Z,13.80
2022-11-08T09:42:52.664Z,13.88
2022-11-08T09:46:58.537Z,13.60
2022-11-08T09:51:08.272Z,13.61
2022-11-08T09:55:20.876Z,13.82
2022-11-08T09:59:37.474Z,14.58
2022-11-08T10:03:45.517Z,14.58
2022-11-08T10:07:58.992Z,14.78
2022-11-08T10:12:15.465Z,14.63
2022-11-08T10:16:29.319Z,15.25
2022-11-08T10:20:43.986Z,16.21
2022-11-08T10:24:59.137Z,16.38
2022-11-08T10:29:08.779Z,16.52
2022-11-08T10:33:18.119Z,16.40
2022-11-08T10:37:22.651Z,16.23
2022-11-08T10:41:35.115Z,16.36
2022-11-08T10:45:38.994Z,16.72
2022-11-08T10:49:44.672Z,16.92
2022-11-08T10:53:48.807Z,17.56
2022-11-08T10:57:53.851Z,17.63
2022-11-08T11:01:57.420Z,17.17
2022-11-08T11:06:02.328Z,17.00
2022-11-08T11:10:25.240Z,16.80
2022-11-08T11:14:30.007Z,16.71
2022-11-08T11:18:35.474Z,16.71
2022-11-08T11:22:39.070Z,16.63
2022-11-08T11:26:46.812Z,16.68
2022-11-08T11:31:01.420Z,16.66
2022-11-08T11:35:06.773Z,16.70
2022-11-08T11:39:17.005Z,16.75
2022-11-08T11:43:27.620Z,16.90
2022-11-08T11:47:38.402Z,17.26
2022-11-08T11:51:41.832Z,17.52
2022-11-08T11:56:13.742Z,17.58
2022-11-08T12:00:18.453Z,17.55
2022-11-08T12:04:51.271Z,17.65
2022-11-08T12:09:06.635Z,17.67
2022-11-08T12:13:19.992Z,17.40
2022-11-08T12:17:52.996Z,17.36
2022-11-08T12:22:04.015Z,17.49
2022-11-08T12:26:16.716Z,17.54
2022-11-08T12:30:25.112Z,17.64
2022-11-08T12:34:36.587Z,17.77
2022-11-08T12:38:56.840Z,17.79
2022-11-08T12:43:08.505Z,17.83
2022-11-08T12:47:21.602Z,17.78
2022-11-08T12:51:31.065Z,17.74
2022-11-08T12:55:38.162Z,17.62
2022-11-08T12:59:45.004Z,17.48
2022-11-08T13:04:15.690Z,17.52
2022-11-08T13:08:25.733Z,17.45
2022-11-08T13:12:38.329Z,17.38
2022-11-08T13:16:45.124Z,17.30
2022-11-08T13:20:49.977Z,17.23
2022-11-08T13:24:53.414Z,17.21
2022-11-08T13:29:15.504Z,17.26
2022-11-08T13:33:29.171Z,16.94
2022-11-08T13:37:54.862Z,16.78
2022-11-08T13:42:04.222Z,16.73
2022-11-08T13:46:44.593Z,16.84
2022-11-08T13:50:52.089Z,16.96
2022-11-08T13:54:55.575Z,16.99
2022-11-08T13:58:59.055Z,16.97
2022-11-08T14:03:02.673Z,16.99
2022-11-08T14:07:12.818Z,17.04
2022-11-08T14:11:34.887Z,17.06
2022-11-08T14:15:44.562Z,17.14
2022-11-08T14:19:49.208Z,17.20
2022-11-08T14:23:54.626Z,17.23
2022-11-08T14:27:59.179Z,17.09
2022-11-08T14:32:05.339Z,17.04
2022-11-08T14:36:14.843Z,16.99
2022-11-08T14:40:22.684Z,17.08
2022-11-08T14:44:27.295Z,17.05
2022-11-08T14:48:32.210Z,17.08
2022-11-08T14:52:35.594Z,17.08
2022-11-08T14:56:40.708Z,17.09
2022-11-08T15:00:46.862Z,17.05
2022-11-08T15:04:50.884Z,17.02
2022-11-08T15:08:56.826Z,17.03
2022-11-08T15:13:02.351Z,17.02
2022-11-08T15:17:05.718Z,16.91
2022-11-08T15:21:23.906Z,16.92
2022-11-08T15:25:30.873Z,16.94
2022-11-08T15:29:51.294Z,16.90
2022-11-08T15:33:55.493Z,17.00
2022-11-08T15:38:02.583Z,17.04
2022-11-08T15:42:14.227Z,17.05
2022-11-08T15:46:38.287Z,16.98
2022-11-08T15:50:41.942Z,16.91
2022-11-08T15:54:45.384Z,16.83
2022-11-08T15:58:49.125Z,16.87
2022-11-08T16:02:54.671Z,16.95
2022-11-08T16:06:58.553Z,16.95
2022-11-08T16:11:02.468Z,16.89
2022-11-08T16:15:07.620Z,16.78
2022-11-08T16:19:19.139Z,16.76
2022-11-08T16:23:22.733Z,16.93
2022-11-08T16:27:26.375Z,16.78
2022-11-08T16:31:29.956Z,16.75
2022-11-08T16:35:35.100Z,16.87
2022-11-08T16:39:38.500Z,16.84
2022-11-08T16:43:42.509Z,16.88
2022-11-08T16:47:48.938Z,16.91
2022-11-08T16:51:53.699Z,16.85
2022-11-08T16:55:58.036Z,16.77
2022-11-08T17:00:01.549Z,16.79
2022-11-08T17:04:05.472Z,16.77
2022-11-08T17:08:10.459Z,16.71
2022-11-08T17:12:14.101Z,16.79
2022-11-08T17:16:18.829Z,16.72
2022-11-08T17:20:23.676Z,16.78
2022-11-08T17:24:32.016Z,16.63
2022-11-08T17:28:35.871Z,16.64
2022-11-08T17:32:39.643Z,16.70
2022-11-08T17:36:45.252Z,16.63
2022-11-08T17:40:50.362Z,16.60
2022-11-08T17:44:56.233Z,16.63
2022-11-08T17:48:59.695Z,16.57
2022-11-08T17:53:03.426Z,16.58
2022-11-08T17:57:08.607Z,16.50
2022-11-08T18:01:12.385Z,16.47
2022-11-08T18:05:17.267Z,16.72
2022-11-08T18:09:21.216Z,16.72
2022-11-08T18:13:28.713Z,16.73
2022-11-08T18:17:32.548Z,16.83
2022-11-08T18:21:36.381Z,16.76
2022-11-08T18:25:40.886Z,16.68
2022-11-08T18:29:46.134Z,16.63
2022-11-08T18:33:50.693Z,16.55
2022-11-08T18:37:55.639Z,16.53
2022-11-08T18:41:59.251Z,16.52
2022-11-08T18:46:05.318Z,16.59
2022-11-08T18:50:09.676Z,16.54
2022-11-08T18:54:13.436Z,16.45
2022-11-08T18:58:17.050Z,16.39
2022-11-08T19:02:23.434Z,16.32
2022-11-08T19:06:27.242Z,16.37
2022-11-08T19:10:30.891Z,16.43
2022-11-08T19:14:35.399Z,16.45
2022-11-08T19:18:41.266Z,16.38
2022-11-08T19:22:44.999Z,16.27
2022-11-08T19:26:48.667Z,16.23
2022-11-08T19:30:54.550Z,16.20
2022-11-08T19:34:59.837Z,16.24
2022-11-08T19:39:03.797Z,16.21
2022-11-08T19:43:07.834Z,16.14
2022-11-08T19:47:11.503Z,16.02
2022-11-08T19:51:18.430Z,16.05
2022-11-08T19:55:22.197Z,15.96
2022-11-08T19:59:26.872Z,16.00
2022-11-08T20:03:30.652Z,15.98
2022-11-08T20:07:35.503Z,16.04
2022-11-08T20:11:41.330Z,16.07
2022-11-08T20:15:45.103Z,16.11
2022-11-08T20:19:50.677Z,16.15
2022-11-08T20:23:55.680Z,16.11
2022-11-08T20:27:59.453Z,16.09
2022-11-08T20:32:03.753Z,16.05
2022-11-08T20:36:09.561Z,15.99
2022-11-08T20:40:14.936Z,15.92
2022-11-08T20:44:20.208Z,15.83
2022-11-08T20:48:23.793Z,15.80
2022-11-08T20:52:27.859Z,15.85
2022-11-08T20:56:32.996Z,15.85
2022-11-08T21:00:59.150Z,15.80
2022-11-08T21:05:02.013Z,15.81
2022-11-08T21:09:32.570Z,15.76
2022-11-08T21:13:34.779Z,15.63
2022-11-08T21:17:38.173Z,15.61
2022-11-08T21:21:46.189Z,15.63
2022-11-08T21:25:52.209Z,15.63
2022-11-08T21:29:57.023Z,15.59
2022-11-08T21:34:00.858Z,15.56
2022-11-08T21:38:04.710Z,15.69
2022-11-08T21:42:08.180Z,15.70
2022-11-08T21:46:20.705Z,15.70
2022-11-08T21:50:24.375Z,15.70
2022-11-08T21:54:27.733Z,15.67
2022-11-08T21:58:31.226Z,15.62
2022-11-08T22:02:36.151Z,15.61
2022-11-08T22:06:42.583Z,15.62
2022-11-08T22:10:49.851Z,15.55
2022-11-08T22:14:53.305Z,15.50
2022-11-08T22:19:04.666Z,15.53
2022-11-08T22:23:09.152Z,15.51
2022-11-08T22:27:12.565Z,15.39
2022-11-08T22:31:16.257Z,15.39
2022-11-08T22:35:21.150Z,15.51
2022-11-08T22:39:24.836Z,15.41
2022-11-08T22:43:28.222Z,15.44
2022-11-08T22:47:31.601Z,15.31
2022-11-08T22:51:36.383Z,15.34
2022-11-08T22:55:39.760Z,15.38
2022-11-08T22:59:43.135Z,15.37
2022-11-08T23:03:47.712Z,15.47
2022-11-08T23:07:52.411Z,15.46
2022-11-08T23:12:13.071Z,15.44
2022-11-08T23:16:37.225Z,15.41
2022-11-08T23:20:57.879Z,15.47
2022-11-08T23:25:02.803Z,15.46
2022-11-08T23:29:24.098Z,15.38
2022-11-08T23:33:27.649Z,15.41
2022-11-08T23:37:31.069Z,15.46
2022-11-08T23:42:07.865Z,15.47
2022-11-08T23:46:13.285Z,15.38
2022-11-08T23:50:16.742Z,15.37
2022-11-08T23:54:20.333Z,15.27
2022-11-08T23:58:26.539Z,15.14
